Latest Weather Observations for Scherger

IDQ60801

Issued at 10:05 am EST Thursday 21 August 2014 (issued every 30 minutes, with the page automatically refreshed every 10 minutes)

About weather observations | Map of weather stations | Latest weather observations for QLD | Other Formats
Station Details ID: 027075 Name: SCHERGER RAAF Lat: -12.62 Lon: 142.09 Height: 39.34 m
Data from the previous 72 hours. | See also: Recent months at Scherger
Date/Time
EST
Temp
°C
App
Temp
°C
Dew
Point
Rel
Hum
%
Delta-T
°C
Wind Press
QNH
hPa
Press
MSL
hPa
Rain
since 9 am
mm
Dir
 
Spd
km/h
Gust
km/h
Spd
kts
Gust
kts
21/10:00am 27.2 27.8 18.5 59 5.6 ENE 13 20 7 11 1015.3 1015.1 0.0
21/09:30am 26.2 26.7 18.3 61 5.0 E 13 20 7 11 1015.5 1015.3 0.0
21/09:00am 25.6 27.4 18.8 66 4.3 ESE 7 13 4 7 1015.5 1015.3 0.0
21/08:30am 23.4 25.1 18.5 74 3.1 E 7 13 4 7 1015.2 1015.0 0.0
21/08:00am 22.6 25.0 18.8 79 2.4 ESE 4 11 2 6 1015.0 1014.8 0.0
21/07:30am 22.1 24.9 18.9 82 2.0 SE 2 7 1 4 1014.8 1014.6 0.0
21/07:00am 21.8 24.9 18.6 82 2.0 CALM 0 0 0 0 1014.4 1014.2 0.0
21/06:30am 21.9 25.0 18.7 82 2.0 CALM 0 0 0 0 1014.2 1014.0 0.0
21/06:00am 22.1 25.2 18.7 81 2.1 SE 0 0 0 0 1014.0 1013.8 0.0
21/05:30am 22.2 25.4 18.8 81 2.1 CALM 0 0 0 0 1013.9 1013.7 0.0
21/05:00am 22.4 24.4 18.8 80 2.3 SSE 6 7 3 4 1013.9 1013.7 0.0
21/04:30am 22.4 24.3 19.0 81 2.2 SE 7 11 4 6 1013.8 1013.6 0.0
21/04:00am 22.3 25.2 19.1 82 2.0 SSE 2 7 1 4 1013.9 1013.7 0.0
21/03:30am 22.2 25.6 19.4 84 1.8 CALM 0 0 0 0 1014.0 1013.8 0.0
21/03:00am 21.7 24.9 18.9 84 1.8 CALM 0 0 0 0 1014.1 1013.9 0.0
21/02:30am 21.6 24.7 18.6 83 1.9 CALM 0 0 0 0 1014.2 1014.0 0.0
21/02:00am 22.1 25.2 18.7 81 2.1 CALM 0 0 0 0 1014.5 1014.3 0.0
21/01:30am 23.2 26.5 19.1 78 2.6 CALM 0 0 0 0 1014.8 1014.6 0.0
21/01:00am 23.4 26.7 19.1 77 2.7 CALM 0 0 0 0 1015.2 1015.0 0.0
21/12:30am 23.5 26.8 19.2 77 2.7 CALM 0 0 0 0 1015.4 1015.2 0.0
21/12:00am 23.4 26.8 19.3 78 2.6 ESE 0 0 0 0 1015.5 1015.3 0.0
 
Date/Time
EST
Temp
°C
App
Temp
°C
Dew
Point
Rel
Hum
%
Delta-T
°C
Wind Press
QNH
hPa
Press
MSL
hPa
Rain
since 9 am
mm
Dir
 
Spd
km/h
Gust
km/h
Spd
kts
Gust
kts
20/11:30pm 23.5 26.9 19.4 78 2.6 CALM 0 0 0 0 1015.7 1015.5 0.0
20/11:00pm 23.5 26.9 19.4 78 2.6 CALM 0 0 0 0 1015.6 1015.4 0.0
20/10:30pm 24.3 27.5 18.9 72 3.4 CALM 0 0 0 0 1015.6 1015.4 0.0
20/10:00pm 24.4 27.7 19.0 72 3.4 CALM 0 7 0 4 1015.6 1015.4 0.0
20/09:30pm 24.2 26.4 19.1 73 3.3 SSW 6 11 3 6 1015.5 1015.3 0.0
20/09:00pm 23.3 26.4 18.6 75 3.0 CALM 0 0 0 0 1015.3 1015.1 0.0
20/08:30pm 23.5 25.6 18.2 72 3.3 E 4 9 2 5 1014.8 1014.6 0.0
20/08:00pm 24.5 25.0 18.4 69 3.9 WSW 13 20 7 11 1013.9 1013.7 0.0
20/07:30pm 24.6 25.5 18.5 69 3.9 W 11 19 6 10 1013.3 1013.1 0.0
20/07:00pm 24.8 26.1 19.2 71 3.6 W 11 17 6 9 1013.0 1012.8 0.0
20/06:30pm 25.2 26.6 19.6 71 3.6 W 11 26 6 14 1012.6 1012.4 0.0
20/06:00pm 25.9 25.8 19.5 68 4.1 W 19 30 10 16 1012.0 1011.8 0.0
20/05:30pm 27.4 27.7 19.5 62 5.1 WSW 17 26 9 14 1011.5 1011.3 0.0
20/05:00pm 29.8 29.1 18.6 51 7.2 W 20 26 11 14 1011.1 1010.9 0.0
20/04:30pm 33.0 34.0 16.4 37 10.5 ENE 6 9 3 5 1010.7 1010.5 0.0
20/04:00pm 32.1 32.2 15.6 37 10.3 N 9 13 5 7 1010.7 1010.5 0.0
20/03:30pm 32.1 32.8 15.6 37 10.3 N 6 11 3 6 1010.6 1010.4 0.0
20/03:00pm 32.6 33.8 16.8 38 10.0 SW 6 19 3 10 1010.9 1010.7 0.0
20/02:30pm 30.7 31.7 16.3 42 9.0 SE 6 11 3 6 1011.5 1011.3 0.0
20/02:00pm 30.7 31.3 16.7 43 8.8 SE 9 15 5 8 1012.2 1012.0 0.0
20/01:30pm 30.8 31.9 17.1 43 8.7 SSW 7 11 4 6 1012.8 1012.6 0.0
20/01:00pm 31.3 32.6 17.6 44 8.8 E 7 13 4 7 1013.5 1013.3 0.0
20/12:30pm 30.0 31.0 17.8 48 7.8 S 9 15 5 8 1014.1 1013.9 0.0
20/12:00pm 29.1 30.3 17.3 49 7.5 NNE 7 13 4 7 1014.4 1014.2 0.0
20/11:30am 28.8 30.4 18.3 53 6.7 S 7 20 4 11 1014.9 1014.7 0.0
20/11:00am 27.9 29.5 18.3 56 6.1 ESE 7 17 4 9 1015.4 1015.2 0.0
20/10:30am 27.5 29.4 19.0 59 5.5 N 7 13 4 7 1015.6 1015.4 0.0
20/10:00am 26.7 28.2 18.8 62 5.1 E 9 15 5 8 1015.9 1015.7 0.0
20/09:30am 25.5 26.9 19.6 70 3.8 E 11 19 6 10 1015.8 1015.6 0.0
20/09:00am 23.4 25.5 19.3 78 2.6 ESE 7 15 4 8 1015.8 1015.6 0.2
20/08:30am 21.7 24.5 18.9 84 1.8 SSE 2 7 1 4 1015.7 1015.5 0.2
20/08:00am 20.7 23.8 18.6 88 1.3 CALM 0 0 0 0 1015.7 1015.5 0.2
20/07:30am 20.1 23.1 18.4 90 1.1 CALM 0 0 0 0 1015.6 1015.4 0.2
20/07:00am 19.2 21.8 17.5 90 1.0 CALM 0 0 0 0 1015.2 1015.0 0.2
20/06:30am 19.2 21.8 17.5 90 1.0 CALM 0 0 0 0 1015.1 1014.9 0.2
20/06:00am 19.5 22.2 17.8 90 1.0 CALM 0 0 0 0 1014.7 1014.5 0.2
20/05:30am 19.6 22.5 18.1 91 0.9 CALM 0 0 0 0 1014.2 1014.0 0.2
20/05:00am 19.7 22.5 18.0 90 1.0 CALM 0 0 0 0 1013.9 1013.7 0.2
20/04:30am 19.7 22.4 17.8 89 1.2 CALM 0 0 0 0 1013.8 1013.6 0.2
20/04:00am 20.1 22.9 17.9 87 1.4 CALM 0 0 0 0 1013.9 1013.7 0.2
20/03:30am 20.5 23.5 18.4 88 1.3 CALM 0 0 0 0 1013.9 1013.7 0.2
20/03:00am 20.5 23.6 18.6 89 1.2 CALM 0 0 0 0 1014.3 1014.1 0.2
20/02:30am 20.7 23.6 18.3 86 1.5 CALM 0 0 0 0 1014.4 1014.2 0.2
20/02:00am 20.9 23.8 18.3 85 1.6 CALM 0 0 0 0 1014.6 1014.4 0.2
20/01:30am 21.1 24.1 18.5 85 1.6 CALM 0 0 0 0 1014.8 1014.6 0.2
20/01:00am 21.3 24.3 18.5 84 1.8 CALM 0 0 0 0 1015.1 1014.9 0.2
20/12:30am 21.8 24.9 18.6 82 2.0 CALM 0 0 0 0 1015.3 1015.1 0.2
20/12:00am 22.3 25.4 18.7 80 2.3 CALM 0 0 0 0 1015.3 1015.1 0.2
 
Date/Time
EST
Temp
°C
App
Temp
°C
Dew
Point
Rel
Hum
%
Delta-T
°C
Wind Press
QNH
hPa
Press
MSL
hPa
Rain
since 9 am
mm
Dir
 
Spd
km/h
Gust
km/h
Spd
kts
Gust
kts
19/11:30pm 23.2 25.3 18.9 77 2.7 ENE 6 9 3 5 1015.5 1015.3 0.2
19/11:00pm 23.7 26.0 19.4 77 2.8 ENE 6 11 3 6 1015.5 1015.3 0.2
19/10:30pm 23.6 27.6 20.5 83 2.0 CALM 0 0 0 0 1015.7 1015.5 0.2
19/10:00pm 24.0 27.9 20.3 80 2.4 CALM 0 0 0 0 1015.7 1015.5 0.0
19/09:30pm 24.2 27.9 19.9 77 2.8 CALM 0 0 0 0 1015.6 1015.4 0.0
19/09:00pm 24.1 27.6 19.6 76 2.9 CALM 0 0 0 0 1015.2 1015.0 0.0
19/08:30pm 24.3 27.9 19.8 76 2.9 CALM 0 0 0 0 1014.8 1014.6 0.0
19/08:00pm 24.3 27.2 19.8 76 2.9 W 4 9 2 5 1014.2 1014.0 0.0
19/07:30pm 23.7 27.0 19.2 76 2.9 CALM 0 0 0 0 1013.9 1013.7 0.0
19/07:00pm 24.4 25.8 19.5 74 3.2 WSW 11 17 6 9 1013.0 1012.8 0.0
19/06:30pm 25.1 26.4 19.2 70 3.8 W 11 17 6 9 1012.7 1012.5 0.0
19/06:00pm 26.1 26.9 19.0 65 4.6 W 13 20 7 11 1012.4 1012.2 0.0
19/05:30pm 27.4 27.7 18.7 59 5.6 W 15 22 8 12 1012.0 1011.8 0.0
19/05:00pm 28.9 29.5 19.5 57 6.1 W 15 20 8 11 1011.6 1011.4 0.0
19/04:30pm 30.9 31.5 18.6 48 8.0 WNW 13 24 7 13 1011.4 1011.2 0.0
19/04:00pm 32.3 33.1 14.9 35 10.7 NE 4 13 2 7 1011.3 1011.1 0.0
19/03:30pm 31.5 32.2 14.6 36 10.3 W 4 11 2 6 1011.4 1011.2 0.0
19/03:00pm 30.6 30.8 14.7 38 9.7 S 7 11 4 6 1011.7 1011.5 0.0
19/02:30pm 31.4 31.8 16.2 40 9.5 SE 9 13 5 7 1012.2 1012.0 0.0
19/02:00pm 31.5 32.7 15.9 39 9.7 WNW 4 7 2 4 1012.7 1012.5 0.0
19/01:30pm 30.3 30.8 15.6 41 9.1 ESE 7 11 4 6 1013.2 1013.0 0.0
19/01:00pm 31.0 31.6 15.8 40 9.5 NNE 7 15 4 8 1013.7 1013.5 0.0
19/12:30pm 30.0 30.7 17.1 46 8.2 SSW 9 13 5 7 1014.1 1013.9 0.0
19/12:00pm 29.6 31.0 17.8 49 7.5 S 7 13 4 7 1014.7 1014.5 0.0
19/11:30am 29.1 29.8 17.0 48 7.6 NE 9 15 5 8 1015.4 1015.2 0.0
19/11:00am 28.4 29.9 17.6 52 6.8 ENE 6 13 3 7 1015.9 1015.7 0.0
19/10:30am 26.9 28.5 18.2 59 5.5 ENE 7 15 4 8 1016.3 1016.1 0.0
19/10:00am 26.7 28.1 18.6 61 5.2 ENE 9 15 5 8 1016.6 1016.4 0.0
19/09:30am 25.2 26.4 18.2 65 4.4 E 9 17 5 9 1016.8 1016.6 0.0
19/09:00am 23.9 25.6 17.2 66 4.1 SE 4 9 2 5 1016.8 1016.6 0.0
19/08:30am 22.4 22.9 15.0 63 4.4 SSE 6 11 3 6 1016.6 1016.4 0.0
19/08:00am 20.7 20.4 13.2 62 4.3 SSE 7 11 4 6 1016.3 1016.1 0.0
19/07:30am 18.8 19.3 12.8 68 3.4 S 2 7 1 4 1016.2 1016.0 0.0
19/07:00am 17.9 17.6 12.8 72 2.9 S 6 9 3 5 1015.9 1015.7 0.0
19/06:30am 17.8 18.6 12.7 72 2.8 CALM 0 0 0 0 1015.5 1015.3 0.0
19/06:00am 17.8 18.8 13.1 74 2.6 CALM 0 0 0 0 1015.1 1014.9 0.0
19/05:30am 17.3 18.2 13.0 76 2.4 CALM 0 0 0 0 1015.0 1014.8 0.0
19/05:00am 17.4 18.4 13.1 76 2.4 CALM 0 0 0 0 1014.8 1014.6 0.0
19/04:30am 17.5 18.5 13.2 76 2.4 CALM 0 0 0 0 1014.8 1014.6 0.0
19/04:00am 17.4 18.3 12.9 75 2.5 CALM 0 0 0 0 1014.9 1014.7 0.0
19/03:30am 17.8 18.6 12.7 72 2.8 CALM 0 0 0 0 1015.0 1014.8 0.0
19/03:00am 18.6 19.4 12.6 68 3.4 CALM 0 0 0 0 1015.0 1014.8 0.0
19/02:30am 19.7 20.5 12.7 64 3.9 CALM 0 0 0 0 1015.0 1014.8 0.0
19/02:00am 21.1 21.6 12.8 59 4.7 SSW 2 7 1 4 1015.1 1014.9 0.0
19/01:30am 21.5 21.1 12.9 58 4.9 S 7 11 4 6 1015.1 1014.9 0.0
19/01:00am 21.6 21.4 13.5 60 4.7 SSW 7 11 4 6 1015.1 1014.9 0.0
19/12:30am 21.5 21.5 13.7 61 4.5 S 6 9 3 5 1015.3 1015.1 0.0
19/12:00am 21.7 23.2 14.6 64 4.2 CALM 0 0 0 0 1015.5 1015.3 0.0
 
Date/Time
EST
Temp
°C
App
Temp
°C
Dew
Point
Rel
Hum
%
Delta-T
°C
Wind Press
QNH
hPa
Press
MSL
hPa
Rain
since 9 am
mm
Dir
 
Spd
km/h
Gust
km/h
Spd
kts
Gust
kts
18/11:30pm 22.8 24.2 14.4 59 4.9 CALM 0 0 0 0 1015.4 1015.2 0.0
18/11:00pm 22.9 24.1 13.9 57 5.3 CALM 0 6 0 3 1015.5 1015.3 0.0
18/10:30pm 23.1 24.5 14.4 58 5.1 CALM 0 7 0 4 1015.5 1015.3 0.0
18/10:00pm 23.1 23.4 14.4 58 5.1 SSW 6 9 3 5 1015.3 1015.1 0.0
18/09:30pm 23.3 23.3 14.3 57 5.3 SSW 7 11 4 6 1015.0 1014.8 0.0
18/09:00pm 23.5 23.7 14.8 58 5.2 SW 7 13 4 7 1014.7 1014.5 0.0
18/08:30pm 23.1 23.7 15.4 62 4.6 WSW 6 9 3 5 1014.3 1014.1 0.0
18/08:00pm 23.4 24.1 15.5 61 4.8 W 6 11 3 6 1014.0 1013.8 0.0
18/07:30pm 23.8 24.2 15.3 59 5.1 W 7 11 4 6 1013.7 1013.5 0.0
18/07:00pm 24.2 24.5 14.6 55 5.7 WNW 6 11 3 6 1013.3 1013.1 0.0
18/06:30pm 25.0 24.9 13.9 50 6.5 WNW 7 13 4 7 1013.0 1012.8 0.0
18/06:00pm 25.8 24.9 13.6 47 7.2 WNW 11 19 6 10 1012.7 1012.5 0.0
18/05:30pm 27.3 27.2 15.0 47 7.5 NW 9 15 5 8 1012.3 1012.1 0.0
18/05:00pm 27.9 27.4 14.9 45 7.9 NW 11 20 6 11 1012.0 1011.8 0.0
18/04:30pm 28.9 26.6 14.7 42 8.6 NW 20 26 11 14 1011.7 1011.5 0.0
18/04:00pm 32.4 33.0 15.4 36 10.6 ESE 6 9 3 5 1011.2 1011.0 0.0
18/03:30pm 32.5 32.6 15.5 36 10.6 N 9 17 5 9 1011.3 1011.1 0.0
18/03:00pm 32.8 32.3 14.9 34 11.1 NNW 11 22 6 12 1011.5 1011.3 0.0
18/02:30pm 32.9 33.3 16.3 37 10.5 NNE 9 20 5 11 1011.7 1011.5 0.0
18/02:00pm 31.6 31.2 15.1 36 10.2 ENE 11 19 6 10 1012.3 1012.1 0.0
18/01:30pm 32.4 32.6 15.8 36 10.4 ENE 9 17 5 9 1012.8 1012.6 0.0
18/01:00pm 31.5 31.2 15.5 38 9.9 N 11 20 6 11 1013.2 1013.0 0.0
18/12:30pm 29.4 28.7 13.2 37 9.6 E 9 17 5 9 1013.8 1013.6 0.0
18/12:00pm 29.8 29.6 14.7 39 9.2 E 9 19 5 10 1014.3 1014.1 0.0
18/11:30am 28.4 27.2 12.7 38 9.2 SSE 11 15 6 8 1014.7 1014.5 0.0
18/11:00am 27.7 26.6 12.1 38 9.0 ESE 9 17 5 9 1015.3 1015.1 0.0
18/10:30am 26.6 25.1 10.7 37 9.0 SE 9 24 5 13 1015.7 1015.5 0.0

Other Formats:

Comma delimited format used in spreadsheet applications
http://www.bom.gov.au/fwo/IDQ60801/IDQ60801.94171.axf

JavaScript Object Notation format (JSON) in row-major order
http://www.bom.gov.au/fwo/IDQ60801/IDQ60801.94171.json